Details for Norwegian Air Shuttle at EVRA




Go Back


Latest METAR
Local Time

EVRA 240750Z 34009KT CAVOK 17/13 Q1026 NOSIG

24/05/2018, 11:01:01

Description
Results
Norwegian Air Shuttle Logo
Number of Pilots based at EVRA
0 Pilots Based here
Number of Norwegian Air Shuttle Flights Departed from EVRA
0 Flights Departed
Number of Norwegian Air Shuttle Flights Arrived at EVRA
0 Flights Arrived
Number of Norwegian Air Shuttle Schedules Departing from EVRA
4 Schedules
Number of Norwegian Air Shuttle Schedules Arriving at EVRA
4 Schedules
Number of Norwegian Air Shuttle Schedules Departing from EVRA availible today
3 Schedules Today
Number of Norwegian Air Shuttle Schedules Arriving at EVRA availible today
3 Schedules Today
Average Landing Rate at EVRA
-172 fpm
Norwegian Air Shuttle Average Landing Rate at EVRA
0 fpm
Total Fuel Purchased at EVRA by Norwegian Air Shuttle
0.00 kgs / 0.00 lbs

Pilots Based at EVRA


Pilot ID
Pilot Name
Pilot Rank
No. of Flights
No. of Flying Hours
There are no pilots assigned to this hub!   Will you be the first?
Content